sensor_id;sensor_type;location;lat;lon;timestamp;temperature;humidity
18384;DHT22;9318;48.644;9.456;2023-11-19T00:02:19;8.20;99.90
18384;DHT22;9318;48.644;9.456;2023-11-19T00:04:46;8.30;99.90
18384;DHT22;9318;48.644;9.456;2023-11-19T00:07:14;8.30;99.90
18384;DHT22;9318;48.644;9.456;2023-11-19T00:09:41;8.20;99.90
18384;DHT22;9318;48.644;9.456;2023-11-19T00:12:09;8.30;99.90
18384;DHT22;9318;48.644;9.456;2023-11-19T00:14:36;8.30;99.90
18384;DHT22;9318;48.644;9.456;2023-11-19T00:17:03;8.30;99.90
18384;DHT22;9318;48.644;9.456;2023-11-19T00:19:30;8.30;99.90
18384;DHT22;9318;48.644;9.456;2023-11-19T00:21:56;8.30;99.90
18384;DHT22;9318;48.644;9.456;2023-11-19T00:24:29;8.40;99.90
18384;DHT22;9318;48.644;9.456;2023-11-19T00:26:56;8.40;99.90
18384;DHT22;9318;48.644;9.456;2023-11-19T00:29:22;8.40;99.90
18384;DHT22;9318;48.644;9.456;2023-11-19T00:31:50;8.40;99.90
18384;DHT22;9318;48.644;9.456;2023-11-19T00:34:17;8.50;99.90
18384;DHT22;9318;48.644;9.456;2023-11-19T00:36:47;8.50;99.90
18384;DHT22;9318;48.644;9.456;2023-11-19T00:39:14;8.50;99.90
18384;DHT22;9318;48.644;9.456;2023-11-19T00:41:42;8.60;99.90
18384;DHT22;9318;48.644;9.456;2023-11-19T00:44:09;8.60;99.90
18384;DHT22;9318;48.644;9.456;2023-11-19T00:46:36;8.70;99.90
18384;DHT22;9318;48.644;9.456;2023-11-19T00:49:02;8.80;99.90
18384;DHT22;9318;48.644;9.456;2023-11-19T00:51:29;8.70;99.90
18384;DHT22;9318;48.644;9.456;2023-11-19T00:53:57;8.80;99.90
18384;DHT22;9318;48.644;9.456;2023-11-19T00:56:24;8.80;99.90
18384;DHT22;9318;48.644;9.456;2023-11-19T00:58:52;8.80;99.90
18384;DHT22;9318;48.644;9.456;2023-11-19T01:01:19;8.80;99.90
18384;DHT22;9318;48.644;9.456;2023-11-19T01:03:46;8.80;99.90
18384;DHT22;9318;48.644;9.456;2023-11-19T01:06:12;8.80;99.90
18384;DHT22;9318;48.644;9.456;2023-11-19T01:08:42;8.90;99.90
18384;DHT22;9318;48.644;9.456;2023-11-19T01:11:18;8.90;99.90
18384;DHT22;9318;48.644;9.456;2023-11-19T01:13:46;8.90;99.90
18384;DHT22;9318;48.644;9.456;2023-11-19T01:16:14;9.00;99.90
18384;DHT22;9318;48.644;9.456;2023-11-19T01:18:41;9.10;99.90
18384;DHT22;9318;48.644;9.456;2023-11-19T01:21:08;9.10;99.90
18384;DHT22;9318;48.644;9.456;2023-11-19T01:23:34;9.20;99.90
18384;DHT22;9318;48.644;9.456;2023-11-19T01:26:02;9.10;99.90
18384;DHT22;9318;48.644;9.456;2023-11-19T01:28:30;9.20;99.90
18384;DHT22;9318;48.644;9.456;2023-11-19T01:30:57;9.10;99.90
18384;DHT22;9318;48.644;9.456;2023-11-19T01:33:25;9.20;99.90
18384;DHT22;9318;48.644;9.456;2023-11-19T01:35:53;9.10;99.90
18384;DHT22;9318;48.644;9.456;2023-11-19T01:38:20;9.20;99.90
18384;DHT22;9318;48.644;9.456;2023-11-19T01:40:47;9.20;99.90
18384;DHT22;9318;48.644;9.456;2023-11-19T01:43:32;9.20;99.90
18384;DHT22;9318;48.644;9.456;2023-11-19T01:45:59;9.20;99.90
18384;DHT22;9318;48.644;9.456;2023-11-19T01:48:27;9.20;99.90
18384;DHT22;9318;48.644;9.456;2023-11-19T01:50:55;9.10;99.90
18384;DHT22;9318;48.644;9.456;2023-11-19T01:53:23;9.20;99.90
18384;DHT22;9318;48.644;9.456;2023-11-19T01:55:50;9.20;99.90
18384;DHT22;9318;48.644;9.456;2023-11-19T01:58:18;9.20;99.90
18384;DHT22;9318;48.644;9.456;2023-11-19T02:00:45;9.20;99.90
18384;DHT22;9318;48.644;9.456;2023-11-19T02:03:12;9.20;99.90
18384;DHT22;9318;48.644;9.456;2023-11-19T02:05:40;9.20;99.90
18384;DHT22;9318;48.644;9.456;2023-11-19T02:08:07;9.30;99.90
18384;DHT22;9318;48.644;9.456;2023-11-19T02:10:34;9.30;99.90
18384;DHT22;9318;48.644;9.456;2023-11-19T02:13:01;9.30;99.90
18384;DHT22;9318;48.644;9.456;2023-11-19T02:15:30;9.30;99.90
18384;DHT22;9318;48.644;9.456;2023-11-19T02:17:57;9.30;99.90
18384;DHT22;9318;48.644;9.456;2023-11-19T02:20:44;9.30;99.90
18384;DHT22;9318;48.644;9.456;2023-11-19T02:23:12;9.30;99.90
18384;DHT22;9318;48.644;9.456;2023-11-19T02:25:40;9.30;99.90
18384;DHT22;9318;48.644;9.456;2023-11-19T02:28:09;9.30;99.90
18384;DHT22;9318;48.644;9.456;2023-11-19T02:30:37;9.30;99.90
18384;DHT22;9318;48.644;9.456;2023-11-19T02:33:04;9.30;99.90
18384;DHT22;9318;48.644;9.456;2023-11-19T02:35:32;9.30;99.90
18384;DHT22;9318;48.644;9.456;2023-11-19T02:37:59;9.40;99.90
18384;DHT22;9318;48.644;9.456;2023-11-19T02:40:26;9.40;99.90
18384;DHT22;9318;48.644;9.456;2023-11-19T02:42:53;9.40;99.90
18384;DHT22;9318;48.644;9.456;2023-11-19T02:45:23;9.30;99.90
18384;DHT22;9318;48.644;9.456;2023-11-19T02:47:50;9.40;99.90
18384;DHT22;9318;48.644;9.456;2023-11-19T02:50:17;9.40;99.90
18384;DHT22;9318;48.644;9.456;2023-11-19T02:52:51;9.40;99.90
18384;DHT22;9318;48.644;9.456;2023-11-19T02:55:18;9.40;99.90
18384;DHT22;9318;48.644;9.456;2023-11-19T02:57:45;9.40;99.90
18384;DHT22;9318;48.644;9.456;2023-11-19T03:00:14;9.40;99.90
18384;DHT22;9318;48.644;9.456;2023-11-19T03:02:43;9.40;99.90
18384;DHT22;9318;48.644;9.456;2023-11-19T03:05:11;9.40;99.90
18384;DHT22;9318;48.644;9.456;2023-11-19T03:07:40;9.40;99.90
18384;DHT22;9318;48.644;9.456;2023-11-19T03:10:08;9.30;99.90
18384;DHT22;9318;48.644;9.456;2023-11-19T03:12:38;9.40;99.90
18384;DHT22;9318;48.644;9.456;2023-11-19T03:15:06;9.40;99.90
18384;DHT22;9318;48.644;9.456;2023-11-19T03:17:35;9.40;99.90
18384;DHT22;9318;48.644;9.456;2023-11-19T03:20:04;9.40;99.90
18384;DHT22;9318;48.644;9.456;2023-11-19T03:22:32;9.40;99.90
18384;DHT22;9318;48.644;9.456;2023-11-19T03:25:00;9.40;99.90
18384;DHT22;9318;48.644;9.456;2023-11-19T03:27:26;9.40;99.90
18384;DHT22;9318;48.644;9.456;2023-11-19T03:29:53;9.40;99.90
18384;DHT22;9318;48.644;9.456;2023-11-19T03:32:20;9.40;99.90
18384;DHT22;9318;48.644;9.456;2023-11-19T03:34:47;9.40;99.90
18384;DHT22;9318;48.644;9.456;2023-11-19T03:37:15;9.40;99.90
18384;DHT22;9318;48.644;9.456;2023-11-19T03:39:42;9.40;99.90
18384;DHT22;9318;48.644;9.456;2023-11-19T03:42:09;9.40;99.90
18384;DHT22;9318;48.644;9.456;2023-11-19T03:44:35;9.40;99.90
18384;DHT22;9318;48.644;9.456;2023-11-19T03:47:02;9.40;99.90
18384;DHT22;9318;48.644;9.456;2023-11-19T03:49:28;9.40;99.90
18384;DHT22;9318;48.644;9.456;2023-11-19T03:51:55;9.40;99.90
18384;DHT22;9318;48.644;9.456;2023-11-19T03:54:23;9.40;99.90
18384;DHT22;9318;48.644;9.456;2023-11-19T03:56:50;9.40;99.90
18384;DHT22;9318;48.644;9.456;2023-11-19T03:59:17;9.40;99.90
18384;DHT22;9318;48.644;9.456;2023-11-19T04:01:46;9.40;99.90
18384;DHT22;9318;48.644;9.456;2023-11-19T04:04:12;9.40;99.90
18384;DHT22;9318;48.644;9.456;2023-11-19T04:06:39;9.30;99.90
18384;DHT22;9318;48.644;9.456;2023-11-19T04:09:06;9.40;99.90
18384;DHT22;9318;48.644;9.456;2023-11-19T04:11:35;9.40;99.90
18384;DHT22;9318;48.644;9.456;2023-11-19T04:14:02;9.30;99.90
18384;DHT22;9318;48.644;9.456;2023-11-19T04:16:29;9.40;99.90
18384;DHT22;9318;48.644;9.456;2023-11-19T04:18:56;9.40;99.90
18384;DHT22;9318;48.644;9.456;2023-11-19T04:21:22;9.40;99.90
18384;DHT22;9318;48.644;9.456;2023-11-19T04:23:49;9.40;99.90
18384;DHT22;9318;48.644;9.456;2023-11-19T04:26:16;9.40;99.90
18384;DHT22;9318;48.644;9.456;2023-11-19T04:28:44;9.40;99.90
18384;DHT22;9318;48.644;9.456;2023-11-19T04:31:11;9.40;99.90
18384;DHT22;9318;48.644;9.456;2023-11-19T04:33:38;9.50;99.90
18384;DHT22;9318;48.644;9.456;2023-11-19T04:36:05;9.50;99.90
18384;DHT22;9318;48.644;9.456;2023-11-19T04:38:32;9.50;99.90
18384;DHT22;9318;48.644;9.456;2023-11-19T04:41:00;9.50;99.90
18384;DHT22;9318;48.644;9.456;2023-11-19T04:43:27;9.50;99.90
18384;DHT22;9318;48.644;9.456;2023-11-19T04:45:55;9.60;99.90
18384;DHT22;9318;48.644;9.456;2023-11-19T04:48:21;9.60;99.90
18384;DHT22;9318;48.644;9.456;2023-11-19T04:50:48;9.60;99.90
18384;DHT22;9318;48.644;9.456;2023-11-19T04:53:15;9.70;99.90
18384;DHT22;9318;48.644;9.456;2023-11-19T04:55:42;9.70;99.90
18384;DHT22;9318;48.644;9.456;2023-11-19T04:58:09;9.80;99.90
18384;DHT22;9318;48.644;9.456;2023-11-19T05:00:36;9.80;99.90
18384;DHT22;9318;48.644;9.456;2023-11-19T05:03:04;9.90;99.90
18384;DHT22;9318;48.644;9.456;2023-11-19T05:05:31;9.90;99.90
18384;DHT22;9318;48.644;9.456;2023-11-19T05:07:57;9.90;99.90
18384;DHT22;9318;48.644;9.456;2023-11-19T05:10:24;10.00;99.90
18384;DHT22;9318;48.644;9.456;2023-11-19T05:12:51;10.00;99.90
18384;DHT22;9318;48.644;9.456;2023-11-19T05:15:18;10.10;99.90
18384;DHT22;9318;48.644;9.456;2023-11-19T05:17:45;10.10;99.90
18384;DHT22;9318;48.644;9.456;2023-11-19T05:20:13;10.10;99.90
18384;DHT22;9318;48.644;9.456;2023-11-19T05:22:40;10.20;99.90
18384;DHT22;9318;48.644;9.456;2023-11-19T05:25:08;10.20;99.90
18384;DHT22;9318;48.644;9.456;2023-11-19T05:27:36;10.30;99.90
18384;DHT22;9318;48.644;9.456;2023-11-19T05:30:04;10.30;99.90
18384;DHT22;9318;48.644;9.456;2023-11-19T05:32:32;10.30;99.90
18384;DHT22;9318;48.644;9.456;2023-11-19T05:34:59;10.40;99.90
18384;DHT22;9318;48.644;9.456;2023-11-19T05:37:27;10.50;99.90
18384;DHT22;9318;48.644;9.456;2023-11-19T05:39:54;10.50;99.90
18384;DHT22;9318;48.644;9.456;2023-11-19T05:42:21;10.50;99.90
18384;DHT22;9318;48.644;9.456;2023-11-19T05:44:49;10.50;99.90
18384;DHT22;9318;48.644;9.456;2023-11-19T05:47:16;10.60;99.90
18384;DHT22;9318;48.644;9.456;2023-11-19T05:49:42;10.60;99.90
18384;DHT22;9318;48.644;9.456;2023-11-19T05:52:09;10.60;99.90
18384;DHT22;9318;48.644;9.456;2023-11-19T05:54:38;10.70;99.90
18384;DHT22;9318;48.644;9.456;2023-11-19T05:57:05;10.60;99.90
18384;DHT22;9318;48.644;9.456;2023-11-19T05:59:34;10.70;99.90
18384;DHT22;9318;48.644;9.456;2023-11-19T06:02:01;10.70;99.90
18384;DHT22;9318;48.644;9.456;2023-11-19T06:04:29;10.70;99.90
18384;DHT22;9318;48.644;9.456;2023-11-19T06:06:55;10.70;99.90
18384;DHT22;9318;48.644;9.456;2023-11-19T06:09:22;10.80;99.90
18384;DHT22;9318;48.644;9.456;2023-11-19T06:11:51;10.80;99.90
18384;DHT22;9318;48.644;9.456;2023-11-19T06:14:18;10.80;99.90
18384;DHT22;9318;48.644;9.456;2023-11-19T06:16:44;10.80;99.90
18384;DHT22;9318;48.644;9.456;2023-11-19T06:19:11;10.80;99.90
18384;DHT22;9318;48.644;9.456;2023-11-19T06:21:38;10.80;99.90
18384;DHT22;9318;48.644;9.456;2023-11-19T06:24:05;10.80;99.90
18384;DHT22;9318;48.644;9.456;2023-11-19T06:26:32;10.80;99.90
18384;DHT22;9318;48.644;9.456;2023-11-19T06:29:00;10.90;99.90
18384;DHT22;9318;48.644;9.456;2023-11-19T06:31:27;10.90;99.90
18384;DHT22;9318;48.644;9.456;2023-11-19T06:33:53;10.90;99.90
18384;DHT22;9318;48.644;9.456;2023-11-19T06:36:20;10.90;99.90
18384;DHT22;9318;48.644;9.456;2023-11-19T06:38:47;10.90;99.90
18384;DHT22;9318;48.644;9.456;2023-11-19T06:41:14;10.90;99.90
18384;DHT22;9318;48.644;9.456;2023-11-19T06:43:41;10.90;99.90
18384;DHT22;9318;48.644;9.456;2023-11-19T06:46:16;11.00;99.90
18384;DHT22;9318;48.644;9.456;2023-11-19T06:48:43;11.00;99.90
18384;DHT22;9318;48.644;9.456;2023-11-19T06:51:10;11.10;99.90
18384;DHT22;9318;48.644;9.456;2023-11-19T06:53:37;11.10;99.90
18384;DHT22;9318;48.644;9.456;2023-11-19T06:56:05;11.10;99.90
18384;DHT22;9318;48.644;9.456;2023-11-19T06:58:36;11.20;99.90
18384;DHT22;9318;48.644;9.456;2023-11-19T07:01:03;11.20;99.90
18384;DHT22;9318;48.644;9.456;2023-11-19T07:03:31;11.20;99.90
18384;DHT22;9318;48.644;9.456;2023-11-19T07:05:58;11.30;99.90
18384;DHT22;9318;48.644;9.456;2023-11-19T07:08:24;11.40;99.90
18384;DHT22;9318;48.644;9.456;2023-11-19T07:10:52;11.40;99.90
18384;DHT22;9318;48.644;9.456;2023-11-19T07:13:18;11.40;99.90
18384;DHT22;9318;48.644;9.456;2023-11-19T07:15:46;11.40;99.90
18384;DHT22;9318;48.644;9.456;2023-11-19T07:18:13;11.40;99.90
18384;DHT22;9318;48.644;9.456;2023-11-19T07:20:41;11.40;99.90
18384;DHT22;9318;48.644;9.456;2023-11-19T07:23:09;11.40;99.90
18384;DHT22;9318;48.644;9.456;2023-11-19T07:25:35;11.40;99.90
18384;DHT22;9318;48.644;9.456;2023-11-19T07:28:02;11.40;99.90
18384;DHT22;9318;48.644;9.456;2023-11-19T07:30:30;11.40;99.90
18384;DHT22;9318;48.644;9.456;2023-11-19T07:32:57;11.40;99.90
18384;DHT22;9318;48.644;9.456;2023-11-19T07:35:23;11.50;99.90
18384;DHT22;9318;48.644;9.456;2023-11-19T07:37:52;11.50;99.90
18384;DHT22;9318;48.644;9.456;2023-11-19T07:40:18;11.60;99.90
18384;DHT22;9318;48.644;9.456;2023-11-19T07:42:45;11.60;99.90
18384;DHT22;9318;48.644;9.456;2023-11-19T07:45:12;11.50;99.90
18384;DHT22;9318;48.644;9.456;2023-11-19T07:47:39;11.50;99.90
18384;DHT22;9318;48.644;9.456;2023-11-19T07:50:06;11.50;99.90
18384;DHT22;9318;48.644;9.456;2023-11-19T07:52:33;11.50;99.90
18384;DHT22;9318;48.644;9.456;2023-11-19T07:55:01;11.50;99.90
18384;DHT22;9318;48.644;9.456;2023-11-19T07:57:28;11.50;99.90
18384;DHT22;9318;48.644;9.456;2023-11-19T07:59:56;11.50;99.90
18384;DHT22;9318;48.644;9.456;2023-11-19T08:02:23;11.60;99.90
18384;DHT22;9318;48.644;9.456;2023-11-19T08:04:50;11.60;99.90
18384;DHT22;9318;48.644;9.456;2023-11-19T08:07:17;11.60;99.90
18384;DHT22;9318;48.644;9.456;2023-11-19T08:09:44;11.60;99.90
18384;DHT22;9318;48.644;9.456;2023-11-19T08:12:12;11.60;99.90
18384;DHT22;9318;48.644;9.456;2023-11-19T08:14:40;11.60;99.90
18384;DHT22;9318;48.644;9.456;2023-11-19T08:17:06;11.60;99.90
18384;DHT22;9318;48.644;9.456;2023-11-19T08:19:33;11.70;99.90
18384;DHT22;9318;48.644;9.456;2023-11-19T08:22:00;11.70;99.90
18384;DHT22;9318;48.644;9.456;2023-11-19T08:24:27;11.80;99.90
18384;DHT22;9318;48.644;9.456;2023-11-19T08:26:54;11.80;99.90
18384;DHT22;9318;48.644;9.456;2023-11-19T08:29:22;11.90;99.90
18384;DHT22;9318;48.644;9.456;2023-11-19T08:31:50;12.00;99.90
18384;DHT22;9318;48.644;9.456;2023-11-19T08:34:16;12.10;99.90
18384;DHT22;9318;48.644;9.456;2023-11-19T08:36:43;12.20;99.90
18384;DHT22;9318;48.644;9.456;2023-11-19T08:39:10;12.30;99.90
18384;DHT22;9318;48.644;9.456;2023-11-19T08:41:36;12.70;99.90
18384;DHT22;9318;48.644;9.456;2023-11-19T08:44:05;13.20;99.90
18384;DHT22;9318;48.644;9.456;2023-11-19T08:46:33;13.40;99.90
18384;DHT22;9318;48.644;9.456;2023-11-19T08:49:00;13.40;99.90
18384;DHT22;9318;48.644;9.456;2023-11-19T08:51:27;13.30;99.90
18384;DHT22;9318;48.644;9.456;2023-11-19T08:53:53;13.30;99.90
18384;DHT22;9318;48.644;9.456;2023-11-19T08:56:21;13.20;99.90
18384;DHT22;9318;48.644;9.456;2023-11-19T08:58:47;13.10;99.90
18384;DHT22;9318;48.644;9.456;2023-11-19T09:01:14;13.10;99.90
18384;DHT22;9318;48.644;9.456;2023-11-19T09:03:42;13.10;99.90
18384;DHT22;9318;48.644;9.456;2023-11-19T09:06:09;13.00;99.90
18384;DHT22;9318;48.644;9.456;2023-11-19T09:08:36;13.00;99.90
18384;DHT22;9318;48.644;9.456;2023-11-19T09:11:07;13.00;99.90
18384;DHT22;9318;48.644;9.456;2023-11-19T09:13:34;13.00;99.90
18384;DHT22;9318;48.644;9.456;2023-11-19T09:16:00;13.00;99.90
18384;DHT22;9318;48.644;9.456;2023-11-19T09:18:29;13.00;99.90
18384;DHT22;9318;48.644;9.456;2023-11-19T09:20:57;13.30;99.90
18384;DHT22;9318;48.644;9.456;2023-11-19T09:23:23;13.80;99.90
18384;DHT22;9318;48.644;9.456;2023-11-19T09:25:51;14.30;99.90
18384;DHT22;9318;48.644;9.456;2023-11-19T09:28:17;14.50;99.90
18384;DHT22;9318;48.644;9.456;2023-11-19T09:30:44;14.40;99.90
18384;DHT22;9318;48.644;9.456;2023-11-19T09:33:11;14.20;99.90
18384;DHT22;9318;48.644;9.456;2023-11-19T09:35:38;14.10;99.90
18384;DHT22;9318;48.644;9.456;2023-11-19T09:38:06;13.90;99.90
18384;DHT22;9318;48.644;9.456;2023-11-19T09:40:33;13.80;99.90
18384;DHT22;9318;48.644;9.456;2023-11-19T09:42:59;13.70;99.90
18384;DHT22;9318;48.644;9.456;2023-11-19T09:45:28;13.60;99.90
18384;DHT22;9318;48.644;9.456;2023-11-19T09:47:55;13.50;99.90
18384;DHT22;9318;48.644;9.456;2023-11-19T09:50:23;13.40;99.90
18384;DHT22;9318;48.644;9.456;2023-11-19T09:52:50;13.30;99.90
18384;DHT22;9318;48.644;9.456;2023-11-19T09:55:18;13.30;99.90
18384;DHT22;9318;48.644;9.456;2023-11-19T09:57:45;13.20;99.90
18384;DHT22;9318;48.644;9.456;2023-11-19T10:00:14;13.30;99.90
18384;DHT22;9318;48.644;9.456;2023-11-19T10:02:43;13.30;99.90
18384;DHT22;9318;48.644;9.456;2023-11-19T10:05:11;13.60;99.90
18384;DHT22;9318;48.644;9.456;2023-11-19T10:07:40;13.80;99.90
18384;DHT22;9318;48.644;9.456;2023-11-19T10:10:08;13.90;99.90
18384;DHT22;9318;48.644;9.456;2023-11-19T10:12:37;14.10;99.90
18384;DHT22;9318;48.644;9.456;2023-11-19T10:15:06;14.10;99.90
18384;DHT22;9318;48.644;9.456;2023-11-19T10:17:36;14.10;99.90
18384;DHT22;9318;48.644;9.456;2023-11-19T10:20:03;14.20;99.90
18384;DHT22;9318;48.644;9.456;2023-11-19T10:22:30;14.20;99.90
18384;DHT22;9318;48.644;9.456;2023-11-19T10:24:57;14.30;99.90
18384;DHT22;9318;48.644;9.456;2023-11-19T10:27:24;14.30;99.90
18384;DHT22;9318;48.644;9.456;2023-11-19T10:29:52;14.40;99.90
18384;DHT22;9318;48.644;9.456;2023-11-19T10:32:19;14.40;99.90
18384;DHT22;9318;48.644;9.456;2023-11-19T10:34:45;14.40;99.90
18384;DHT22;9318;48.644;9.456;2023-11-19T10:37:27;14.60;99.90
18384;DHT22;9318;48.644;9.456;2023-11-19T10:39:54;14.80;99.90
18384;DHT22;9318;48.644;9.456;2023-11-19T10:42:21;14.90;99.90
18384;DHT22;9318;48.644;9.456;2023-11-19T10:44:48;15.00;99.90
18384;DHT22;9318;48.644;9.456;2023-11-19T10:47:19;15.00;99.90
18384;DHT22;9318;48.644;9.456;2023-11-19T10:49:46;15.00;99.90
18384;DHT22;9318;48.644;9.456;2023-11-19T10:52:15;15.00;99.90
18384;DHT22;9318;48.644;9.456;2023-11-19T10:54:44;14.90;99.90
18384;DHT22;9318;48.644;9.456;2023-11-19T10:57:19;14.80;99.90
18384;DHT22;9318;48.644;9.456;2023-11-19T10:59:47;14.80;99.90
18384;DHT22;9318;48.644;9.456;2023-11-19T11:02:21;14.90;99.90
18384;DHT22;9318;48.644;9.456;2023-11-19T11:04:50;15.00;99.90
18384;DHT22;9318;48.644;9.456;2023-11-19T11:07:21;15.20;99.90
18384;DHT22;9318;48.644;9.456;2023-11-19T11:09:51;15.30;99.90
18384;DHT22;9318;48.644;9.456;2023-11-19T11:12:22;15.30;99.90
18384;DHT22;9318;48.644;9.456;2023-11-19T11:14:50;15.30;99.90
18384;DHT22;9318;48.644;9.456;2023-11-19T11:17:20;15.30;99.90
18384;DHT22;9318;48.644;9.456;2023-11-19T11:19:50;15.20;99.90
18384;DHT22;9318;48.644;9.456;2023-11-19T11:22:17;15.10;99.90
18384;DHT22;9318;48.644;9.456;2023-11-19T11:25:16;15.00;99.90
18384;DHT22;9318;48.644;9.456;2023-11-19T11:28:03;15.00;99.90
18384;DHT22;9318;48.644;9.456;2023-11-19T11:30:45;14.90;99.90
18384;DHT22;9318;48.644;9.456;2023-11-19T11:33:29;14.90;99.90
18384;DHT22;9318;48.644;9.456;2023-11-19T11:36:07;14.80;99.90
18384;DHT22;9318;48.644;9.456;2023-11-19T11:38:37;14.80;99.90
18384;DHT22;9318;48.644;9.456;2023-11-19T11:41:18;14.80;99.90
18384;DHT22;9318;48.644;9.456;2023-11-19T11:43:46;14.90;99.90
18384;DHT22;9318;48.644;9.456;2023-11-19T11:49:28;14.90;99.90
18384;DHT22;9318;48.644;9.456;2023-11-19T11:52:02;14.90;99.90
18384;DHT22;9318;48.644;9.456;2023-11-19T11:54:32;14.80;99.90
18384;DHT22;9318;48.644;9.456;2023-11-19T11:57:06;14.90;99.90
18384;DHT22;9318;48.644;9.456;2023-11-19T11:59:46;15.10;99.90
18384;DHT22;9318;48.644;9.456;2023-11-19T12:02:14;15.20;99.90
18384;DHT22;9318;48.644;9.456;2023-11-19T12:04:46;15.50;99.90
18384;DHT22;9318;48.644;9.456;2023-11-19T12:07:14;15.50;99.90
18384;DHT22;9318;48.644;9.456;2023-11-19T12:09:42;15.50;99.90
18384;DHT22;9318;48.644;9.456;2023-11-19T12:12:18;15.60;99.90
18384;DHT22;9318;48.644;9.456;2023-11-19T12:15:05;15.50;99.90
18384;DHT22;9318;48.644;9.456;2023-11-19T12:17:56;15.50;99.90
18384;DHT22;9318;48.644;9.456;2023-11-19T12:20:25;15.60;99.90
18384;DHT22;9318;48.644;9.456;2023-11-19T12:22:53;15.70;99.90
18384;DHT22;9318;48.644;9.456;2023-11-19T12:25:20;15.80;99.90
18384;DHT22;9318;48.644;9.456;2023-11-19T12:27:49;15.90;99.90
18384;DHT22;9318;48.644;9.456;2023-11-19T12:30:21;16.00;99.90
18384;DHT22;9318;48.644;9.456;2023-11-19T12:32:49;16.00;99.90
18384;DHT22;9318;48.644;9.456;2023-11-19T12:35:16;15.90;99.90
18384;DHT22;9318;48.644;9.456;2023-11-19T12:37:45;15.90;99.90
18384;DHT22;9318;48.644;9.456;2023-11-19T12:40:14;15.90;99.90
18384;DHT22;9318;48.644;9.456;2023-11-19T12:42:43;15.90;99.90
18384;DHT22;9318;48.644;9.456;2023-11-19T12:45:09;15.80;99.90
18384;DHT22;9318;48.644;9.456;2023-11-19T12:47:38;15.80;99.90
18384;DHT22;9318;48.644;9.456;2023-11-19T12:50:05;15.80;99.90
18384;DHT22;9318;48.644;9.456;2023-11-19T12:52:32;15.80;99.90
18384;DHT22;9318;48.644;9.456;2023-11-19T12:55:01;15.80;99.90
18384;DHT22;9318;48.644;9.456;2023-11-19T12:57:40;15.70;99.90
18384;DHT22;9318;48.644;9.456;2023-11-19T13:00:17;15.60;99.90
18384;DHT22;9318;48.644;9.456;2023-11-19T13:02:47;15.50;99.90
18384;DHT22;9318;48.644;9.456;2023-11-19T13:05:25;15.50;99.90
18384;DHT22;9318;48.644;9.456;2023-11-19T13:07:58;15.50;99.90
18384;DHT22;9318;48.644;9.456;2023-11-19T13:10:27;15.50;99.90
18384;DHT22;9318;48.644;9.456;2023-11-19T13:13:04;15.40;99.90
18384;DHT22;9318;48.644;9.456;2023-11-19T13:15:32;15.50;99.90
18384;DHT22;9318;48.644;9.456;2023-11-19T13:17:58;15.60;99.90
18384;DHT22;9318;48.644;9.456;2023-11-19T13:20:25;15.70;99.90
18384;DHT22;9318;48.644;9.456;2023-11-19T13:22:57;16.00;99.90
18384;DHT22;9318;48.644;9.456;2023-11-19T13:25:24;16.00;99.90
18384;DHT22;9318;48.644;9.456;2023-11-19T13:27:53;15.90;99.90
18384;DHT22;9318;48.644;9.456;2023-11-19T13:30:20;15.90;99.90
18384;DHT22;9318;48.644;9.456;2023-11-19T13:32:47;15.90;99.90
18384;DHT22;9318;48.644;9.456;2023-11-19T13:35:14;16.00;99.90
18384;DHT22;9318;48.644;9.456;2023-11-19T13:37:42;16.00;99.90
18384;DHT22;9318;48.644;9.456;2023-11-19T13:40:10;15.90;99.90
18384;DHT22;9318;48.644;9.456;2023-11-19T13:42:39;15.90;99.90
18384;DHT22;9318;48.644;9.456;2023-11-19T13:45:08;15.80;99.90
18384;DHT22;9318;48.644;9.456;2023-11-19T13:47:37;15.70;99.90
18384;DHT22;9318;48.644;9.456;2023-11-19T13:50:07;15.70;99.90
18384;DHT22;9318;48.644;9.456;2023-11-19T13:52:35;15.50;99.90
18384;DHT22;9318;48.644;9.456;2023-11-19T13:55:02;15.50;99.90
18384;DHT22;9318;48.644;9.456;2023-11-19T13:57:30;15.40;99.90
18384;DHT22;9318;48.644;9.456;2023-11-19T13:59:57;15.30;99.90
18384;DHT22;9318;48.644;9.456;2023-11-19T14:02:25;15.30;99.90
18384;DHT22;9318;48.644;9.456;2023-11-19T14:04:52;15.20;99.90
18384;DHT22;9318;48.644;9.456;2023-11-19T14:07:20;15.20;99.90
18384;DHT22;9318;48.644;9.456;2023-11-19T14:09:46;15.40;99.90
18384;DHT22;9318;48.644;9.456;2023-11-19T14:12:13;15.60;99.90
18384;DHT22;9318;48.644;9.456;2023-11-19T14:14:40;15.70;99.90
18384;DHT22;9318;48.644;9.456;2023-11-19T14:17:07;15.90;99.90
18384;DHT22;9318;48.644;9.456;2023-11-19T14:19:35;16.00;99.90
18384;DHT22;9318;48.644;9.456;2023-11-19T14:22:03;16.00;99.90
18384;DHT22;9318;48.644;9.456;2023-11-19T14:24:30;16.10;99.90
18384;DHT22;9318;48.644;9.456;2023-11-19T14:26:57;16.00;99.90
18384;DHT22;9318;48.644;9.456;2023-11-19T14:29:24;16.00;99.90
18384;DHT22;9318;48.644;9.456;2023-11-19T14:31:52;15.80;99.90
18384;DHT22;9318;48.644;9.456;2023-11-19T14:34:19;15.50;99.90
18384;DHT22;9318;48.644;9.456;2023-11-19T14:36:47;15.30;99.90
18384;DHT22;9318;48.644;9.456;2023-11-19T14:39:15;15.20;99.90
18384;DHT22;9318;48.644;9.456;2023-11-19T14:41:42;15.00;99.90
18384;DHT22;9318;48.644;9.456;2023-11-19T14:44:10;15.00;99.90
18384;DHT22;9318;48.644;9.456;2023-11-19T14:46:36;14.90;99.90
18384;DHT22;9318;48.644;9.456;2023-11-19T14:49:03;14.80;99.90
18384;DHT22;9318;48.644;9.456;2023-11-19T14:51:30;14.80;99.90
18384;DHT22;9318;48.644;9.456;2023-11-19T14:53:58;14.70;99.90
18384;DHT22;9318;48.644;9.456;2023-11-19T14:56:25;14.70;99.90
18384;DHT22;9318;48.644;9.456;2023-11-19T14:58:52;14.60;99.90
18384;DHT22;9318;48.644;9.456;2023-11-19T15:01:18;14.50;99.90
18384;DHT22;9318;48.644;9.456;2023-11-19T15:03:45;14.50;99.90
18384;DHT22;9318;48.644;9.456;2023-11-19T15:06:12;14.40;99.90
18384;DHT22;9318;48.644;9.456;2023-11-19T15:08:39;14.30;99.90
18384;DHT22;9318;48.644;9.456;2023-11-19T15:11:07;14.20;99.90
18384;DHT22;9318;48.644;9.456;2023-11-19T15:13:34;14.20;99.90
18384;DHT22;9318;48.644;9.456;2023-11-19T15:16:03;14.10;99.90
18384;DHT22;9318;48.644;9.456;2023-11-19T15:18:31;14.10;99.90
18384;DHT22;9318;48.644;9.456;2023-11-19T15:20:57;14.00;99.90
18384;DHT22;9318;48.644;9.456;2023-11-19T15:23:24;14.00;99.90
18384;DHT22;9318;48.644;9.456;2023-11-19T15:25:51;14.00;99.90
18384;DHT22;9318;48.644;9.456;2023-11-19T15:28:19;14.00;99.90
18384;DHT22;9318;48.644;9.456;2023-11-19T15:30:45;13.90;99.90
18384;DHT22;9318;48.644;9.456;2023-11-19T15:33:12;13.80;99.90
18384;DHT22;9318;48.644;9.456;2023-11-19T15:35:39;13.70;99.90
18384;DHT22;9318;48.644;9.456;2023-11-19T15:38:06;13.50;99.90
18384;DHT22;9318;48.644;9.456;2023-11-19T15:40:35;13.40;99.90
18384;DHT22;9318;48.644;9.456;2023-11-19T15:43:02;13.30;99.90
18384;DHT22;9318;48.644;9.456;2023-11-19T15:45:30;13.30;99.90
18384;DHT22;9318;48.644;9.456;2023-11-19T15:48:01;13.30;99.90
18384;DHT22;9318;48.644;9.456;2023-11-19T15:50:28;13.30;99.90
18384;DHT22;9318;48.644;9.456;2023-11-19T15:52:56;13.20;99.90
18384;DHT22;9318;48.644;9.456;2023-11-19T15:55:24;13.10;99.90
18384;DHT22;9318;48.644;9.456;2023-11-19T15:57:51;13.10;99.90
18384;DHT22;9318;48.644;9.456;2023-11-19T16:00:18;13.00;99.90